createdAt,value
2023-03-12T00:00:17.237Z,94.31
2023-03-12T00:01:17.258Z,94.42
2023-03-12T00:02:17.272Z,94.31
2023-03-12T00:03:17.321Z,94.42
2023-03-12T00:04:17.213Z,94.74
2023-03-12T00:05:17.182Z,94.85
2023-03-12T00:06:17.206Z,94.64
2023-03-12T00:07:17.152Z,94.64
2023-03-12T00:08:17.159Z,94.95
2023-03-12T00:09:17.146Z,95.06
2023-03-12T00:10:17.119Z,95.17
2023-03-12T00:11:17.113Z,95.06
2023-03-12T00:12:17.119Z,95.17
2023-03-12T00:13:17.120Z,95.59
2023-03-12T00:14:17.072Z,95.38
2023-03-12T00:15:17.083Z,94.95
2023-03-12T00:16:17.156Z,94.85
2023-03-12T00:17:17.050Z,94.46
2023-03-12T00:18:17.027Z,94.64
2023-03-12T00:19:17.051Z,95.00
2023-03-12T00:20:17.005Z,94.78
2023-03-12T00:21:17.042Z,94.21
2023-03-12T00:22:17.013Z,94.57
2023-03-12T00:23:16.980Z,94.46
2023-03-12T00:24:17.016Z,94.57
2023-03-12T00:25:16.964Z,94.46
2023-03-12T00:26:16.942Z,94.46
2023-03-12T00:27:16.955Z,94.57
2023-03-12T00:28:16.919Z,94.57
2023-03-12T00:29:16.938Z,94.14
2023-03-12T00:30:16.926Z,94.14
2023-03-12T00:31:16.954Z,94.57
2023-03-12T00:32:16.931Z,94.46
2023-03-12T00:33:16.885Z,94.57
2023-03-12T00:34:16.872Z,94.71
2023-03-12T00:35:16.853Z,94.57
2023-03-12T00:36:16.848Z,94.50
2023-03-12T00:37:16.849Z,94.18
2023-03-12T00:38:16.826Z,94.40
2023-03-12T00:39:16.831Z,94.71
2023-03-12T00:40:16.788Z,94.40
2023-03-12T00:41:16.814Z,94.71
2023-03-12T00:42:16.785Z,94.71
2023-03-12T00:43:16.760Z,94.61
2023-03-12T00:44:16.744Z,93.97
2023-03-12T00:45:16.767Z,94.07
2023-03-12T00:46:16.760Z,94.40
2023-03-12T00:47:16.719Z,94.50
2023-03-12T00:48:16.704Z,94.07
2023-03-12T00:49:16.716Z,94.82
2023-03-12T00:50:16.696Z,94.23
2023-03-12T00:51:16.698Z,94.01
2023-03-12T00:52:16.656Z,94.12
2023-03-12T00:53:16.674Z,94.12
2023-03-12T00:54:16.654Z,94.12
2023-03-12T00:55:16.650Z,94.12
2023-03-12T00:56:16.672Z,93.80
2023-03-12T00:57:16.636Z,94.65
2023-03-12T00:58:16.597Z,94.29
2023-03-12T00:59:16.613Z,94.76
2023-03-12T01:00:16.580Z,94.76
2023-03-12T01:01:16.709Z,94.65
2023-03-12T01:02:16.564Z,94.61
2023-03-12T01:03:16.561Z,94.50
2023-03-12T01:04:16.584Z,94.82
2023-03-12T01:05:16.539Z,94.61
2023-03-12T01:06:16.516Z,94.54
2023-03-12T01:07:16.504Z,94.87
2023-03-12T01:08:16.511Z,95.08
2023-03-12T01:09:16.474Z,94.76
2023-03-12T01:10:16.533Z,94.54
2023-03-12T01:11:16.459Z,94.54
2023-03-12T01:12:16.458Z,94.50
2023-03-12T01:13:16.432Z,94.61
2023-03-12T01:14:16.442Z,94.65
2023-03-12T01:15:16.436Z,94.76
2023-03-12T01:16:16.453Z,94.65
2023-03-12T01:17:16.413Z,94.61
2023-03-12T01:18:16.385Z,94.65
2023-03-12T01:19:16.373Z,95.08
2023-03-12T01:20:16.381Z,94.54
2023-03-12T01:21:16.356Z,94.54
2023-03-12T01:22:16.366Z,94.54
2023-03-12T01:23:16.327Z,94.54
2023-03-12T01:24:16.325Z,94.76
2023-03-12T01:25:16.311Z,94.87
2023-03-12T01:26:16.343Z,94.44
2023-03-12T01:27:16.285Z,94.65
2023-03-12T01:28:16.300Z,94.76
2023-03-12T01:29:16.264Z,94.54
2023-03-12T01:30:16.256Z,94.65
2023-03-12T01:31:16.271Z,94.65
2023-03-12T01:32:16.334Z,94.65
2023-03-12T01:33:16.240Z,94.65
2023-03-12T01:34:16.237Z,94.76
2023-03-12T01:35:16.230Z,94.54
2023-03-12T01:36:16.283Z,94.44
2023-03-12T01:37:16.171Z,94.40
2023-03-12T01:38:16.175Z,94.44
2023-03-12T01:39:16.182Z,94.65
2023-03-12T01:40:16.143Z,94.54
2023-03-12T01:41:16.126Z,94.54
2023-03-12T01:42:16.143Z,94.65
2023-03-12T01:43:16.102Z,94.54
2023-03-12T01:44:16.170Z,94.76
2023-03-12T01:45:16.080Z,94.33
2023-03-12T01:46:16.168Z,94.33
2023-03-12T01:47:16.090Z,94.44
2023-03-12T01:48:16.080Z,94.65
2023-03-12T01:49:16.055Z,95.08
2023-03-12T01:50:16.053Z,94.44
2023-03-12T01:51:16.014Z,94.23
2023-03-12T01:52:16.034Z,94.23
2023-03-12T01:53:16.015Z,94.40
2023-03-12T01:54:15.998Z,94.40
2023-03-12T01:55:15.981Z,94.44
2023-03-12T01:56:15.999Z,94.54
2023-03-12T01:57:15.952Z,94.65
2023-03-12T01:58:16.070Z,94.65
2023-03-12T01:59:15.927Z,94.59
2023-03-12T02:00:15.920Z,94.76
2023-03-12T02:01:15.961Z,94.23
2023-03-12T02:02:15.923Z,94.50
2023-03-12T02:03:15.884Z,94.54
2023-03-12T02:04:15.988Z,94.76
2023-03-12T02:05:15.870Z,95.08
2023-03-12T02:06:15.857Z,94.97
2023-03-12T02:07:15.868Z,94.65
2023-03-12T02:08:15.865Z,95.08
2023-03-12T02:09:15.818Z,94.65
2023-03-12T02:10:15.817Z,95.08
2023-03-12T02:11:15.815Z,95.14
2023-03-12T02:12:15.854Z,94.93
2023-03-12T02:13:15.771Z,95.25
2023-03-12T02:14:15.808Z,95.18
2023-03-12T02:15:15.759Z,95.14
2023-03-12T02:16:15.788Z,95.14
2023-03-12T02:17:15.753Z,94.87
2023-03-12T02:18:15.745Z,95.89
2023-03-12T02:19:15.710Z,95.47
2023-03-12T02:20:15.767Z,95.47
2023-03-12T02:21:15.688Z,95.25
2023-03-12T02:22:15.690Z,95.68
2023-03-12T02:23:15.688Z,95.89
2023-03-12T02:24:15.663Z,96.22
2023-03-12T02:25:15.683Z,96.00
2023-03-12T02:26:15.642Z,95.96
2023-03-12T02:27:15.620Z,96.06
2023-03-12T02:28:15.644Z,95.31
2023-03-12T02:29:15.606Z,96.28
2023-03-12T02:30:15.615Z,96.49
2023-03-12T02:31:15.627Z,96.88
2023-03-12T02:32:15.628Z,97.63
2023-03-12T02:33:15.586Z,98.11
2023-03-12T02:34:15.553Z,97.36
2023-03-12T02:35:15.537Z,97.75
2023-03-12T02:36:15.531Z,97.86
2023-03-12T02:37:15.530Z,97.22
2023-03-12T02:38:15.534Z,97.60
2023-03-12T02:39:15.498Z,97.81
2023-03-12T02:40:15.532Z,98.02
2023-03-12T02:41:15.625Z,97.71
2023-03-12T02:42:15.470Z,97.71
2023-03-12T02:43:15.483Z,97.71
2023-03-12T02:44:15.480Z,98.02
2023-03-12T02:45:15.460Z,97.98
2023-03-12T02:46:15.625Z,98.30
2023-03-12T02:47:15.412Z,98.73
2023-03-12T02:48:15.401Z,98.09
2023-03-12T02:49:15.431Z,97.77
2023-03-12T02:50:15.383Z,98.41
2023-03-12T02:51:15.367Z,97.98
2023-03-12T02:52:15.370Z,97.66
2023-03-12T02:53:15.361Z,97.88
2023-03-12T02:54:15.358Z,97.49
2023-03-12T02:55:15.468Z,98.24
2023-03-12T02:56:15.329Z,97.45
2023-03-12T02:57:15.317Z,97.81
2023-03-12T02:58:15.332Z,97.55
2023-03-12T02:59:15.298Z,97.55
2023-03-12T03:00:15.275Z,97.60
2023-03-12T03:01:15.366Z,97.60
2023-03-12T03:02:15.280Z,97.66
2023-03-12T03:03:15.258Z,97.39
2023-03-12T03:04:15.281Z,97.81
2023-03-12T03:05:15.238Z,97.71
2023-03-12T03:06:15.206Z,97.86
2023-03-12T03:07:15.205Z,97.49
2023-03-12T03:08:15.194Z,97.81
2023-03-12T03:09:15.171Z,97.60
2023-03-12T03:10:15.184Z,97.49
2023-03-12T03:11:15.164Z,97.86
2023-03-12T03:12:15.170Z,97.96
2023-03-12T03:13:15.143Z,97.22
2023-03-12T03:14:15.146Z,96.89
2023-03-12T03:15:15.109Z,97.64
2023-03-12T03:16:15.128Z,97.75
2023-03-12T03:17:15.082Z,97.43
2023-03-12T03:18:15.101Z,97.64
2023-03-12T03:19:15.109Z,97.53
2023-03-12T03:20:15.058Z,97.64
2023-03-12T03:21:15.042Z,97.53
2023-03-12T03:22:15.037Z,97.53
2023-03-12T03:23:15.026Z,97.64
2023-03-12T03:24:15.032Z,97.32
2023-03-12T03:25:15.018Z,97.64
2023-03-12T03:26:14.998Z,97.43
2023-03-12T03:27:15.012Z,97.86
2023-03-12T03:28:14.974Z,97.90
2023-03-12T03:29:14.956Z,97.96
2023-03-12T03:30:14.957Z,98.07
2023-03-12T03:31:14.974Z,97.43
2023-03-12T03:32:14.985Z,97.15
2023-03-12T03:33:14.916Z,97.15
2023-03-12T03:34:14.945Z,97.26
2023-03-12T03:35:14.891Z,97.47
2023-03-12T03:36:15.001Z,97.58
2023-03-12T03:37:14.877Z,96.83
2023-03-12T03:38:14.869Z,96.98
2023-03-12T03:39:14.878Z,96.83
2023-03-12T03:40:14.842Z,97.15
2023-03-12T03:41:14.823Z,97.36
2023-03-12T03:42:14.816Z,97.63
2023-03-12T03:43:14.817Z,97.30
2023-03-12T03:44:14.817Z,97.41
2023-03-12T03:45:14.787Z,97.69
2023-03-12T03:46:14.907Z,97.36
2023-03-12T03:47:14.756Z,97.26
2023-03-12T03:48:14.774Z,97.36
2023-03-12T03:49:14.754Z,97.36
2023-03-12T03:50:14.752Z,97.36
2023-03-12T03:51:14.735Z,97.36
2023-03-12T03:52:14.713Z,97.36
2023-03-12T03:53:14.726Z,97.36
2023-03-12T03:54:14.705Z,97.52
2023-03-12T03:55:14.681Z,97.20
2023-03-12T03:56:14.671Z,97.09
2023-03-12T03:57:14.671Z,96.77
2023-03-12T03:58:14.644Z,96.56
2023-03-12T03:59:14.653Z,97.09
2023-03-12T04:00:14.638Z,97.52
2023-03-12T04:01:14.641Z,97.52
2023-03-12T04:02:14.627Z,97.73
2023-03-12T04:03:14.631Z,97.73
2023-03-12T04:04:14.580Z,97.52
2023-03-12T04:05:14.604Z,97.52
2023-03-12T04:06:14.596Z,97.30
2023-03-12T04:07:14.559Z,97.41
2023-03-12T04:08:14.582Z,97.63
2023-03-12T04:09:14.518Z,97.41
2023-03-12T04:10:14.531Z,97.30
2023-03-12T04:11:14.497Z,96.77
2023-03-12T04:12:14.512Z,97.09
2023-03-12T04:13:14.473Z,96.88
2023-03-12T04:14:14.488Z,96.98
2023-03-12T04:15:14.474Z,96.98
2023-03-12T04:16:14.619Z,96.98
2023-03-12T04:17:14.433Z,96.98
2023-03-12T04:18:14.615Z,97.09
2023-03-12T04:19:14.411Z,97.03
2023-03-12T04:20:14.405Z,97.09
2023-03-12T04:21:14.415Z,97.20
2023-03-12T04:22:14.423Z,97.41
2023-03-12T04:23:14.365Z,96.98
2023-03-12T04:24:14.387Z,96.98
2023-03-12T04:25:14.343Z,96.98
2023-03-12T04:26:14.361Z,96.98
2023-03-12T04:27:14.343Z,97.52
2023-03-12T04:28:14.322Z,97.20
2023-03-12T04:29:14.306Z,97.09
2023-03-12T04:30:14.303Z,97.63
2023-03-12T04:31:14.342Z,97.67
2023-03-12T04:32:14.297Z,97.20
2023-03-12T04:33:14.256Z,96.98
2023-03-12T04:34:14.662Z,96.88
2023-03-12T04:35:14.257Z,96.56
2023-03-12T04:36:14.267Z,96.49
2023-03-12T04:37:14.215Z,96.98
2023-03-12T04:38:14.234Z,96.70
2023-03-12T04:39:14.223Z,96.06
2023-03-12T04:40:14.192Z,96.45
2023-03-12T04:41:14.174Z,96.39
2023-03-12T04:42:14.201Z,96.49
2023-03-12T04:43:14.149Z,96.60
2023-03-12T04:44:14.146Z,96.49
2023-03-12T04:45:14.148Z,96.49
2023-03-12T04:46:14.200Z,96.39
2023-03-12T04:47:14.110Z,96.60
2023-03-12T04:48:14.114Z,96.60
2023-03-12T04:49:14.098Z,96.70
2023-03-12T04:50:14.080Z,96.60
2023-03-12T04:51:14.066Z,96.60
2023-03-12T04:52:14.083Z,96.28
2023-03-12T04:53:14.156Z,96.06
2023-03-12T04:54:14.062Z,96.49
2023-03-12T04:55:14.026Z,97.03
2023-03-12T04:56:14.039Z,97.13
2023-03-12T04:57:14.011Z,97.13
2023-03-12T04:58:14.021Z,96.70
2023-03-12T04:59:13.982Z,96.49
2023-03-12T05:00:14.047Z,96.60
2023-03-12T05:01:13.964Z,96.70
2023-03-12T05:02:13.959Z,97.24
2023-03-12T05:03:13.994Z,97.34
2023-03-12T05:04:14.118Z,97.52
2023-03-12T05:05:13.938Z,97.56
2023-03-12T05:06:13.946Z,97.52
2023-03-12T05:07:13.896Z,97.30
2023-03-12T05:08:13.891Z,97.30
2023-03-12T05:09:13.877Z,97.63
2023-03-12T05:10:13.887Z,97.03
2023-03-12T05:11:13.880Z,97.03
2023-03-12T05:12:13.862Z,97.24
2023-03-12T05:13:13.834Z,96.60
2023-03-12T05:14:13.826Z,97.03
2023-03-12T05:15:13.809Z,96.39
2023-03-12T05:16:13.850Z,96.39
2023-03-12T05:17:13.791Z,96.49
2023-03-12T05:18:13.814Z,96.70
2023-03-12T05:19:13.771Z,96.70
2023-03-12T05:20:13.790Z,96.28
2023-03-12T05:21:13.752Z,96.06
2023-03-12T05:22:13.752Z,96.49
2023-03-12T05:23:13.753Z,96.92
2023-03-12T05:24:13.721Z,96.56
2023-03-12T05:25:13.732Z,96.66
2023-03-12T05:26:13.710Z,96.92
2023-03-12T05:27:13.708Z,97.45
2023-03-12T05:28:13.666Z,97.52
2023-03-12T05:29:13.664Z,97.52
2023-03-12T05:30:13.666Z,97.41
2023-03-12T05:31:13.726Z,97.30
2023-03-12T05:32:13.633Z,97.36
2023-03-12T05:33:13.641Z,97.26
2023-03-12T05:34:13.619Z,98.11
2023-03-12T05:35:13.606Z,97.64
2023-03-12T05:36:13.654Z,97.43
2023-03-12T05:37:13.580Z,97.43
2023-03-12T05:38:13.578Z,97.53
2023-03-12T05:39:13.563Z,97.75
2023-03-12T05:40:13.541Z,97.53
2023-03-12T05:41:13.551Z,97.53
2023-03-12T05:42:13.548Z,97.69
2023-03-12T05:43:13.513Z,98.11
2023-03-12T05:44:13.504Z,97.43
2023-03-12T05:45:13.495Z,97.11
2023-03-12T05:46:13.562Z,97.58
2023-03-12T05:47:13.469Z,97.11
2023-03-12T05:48:13.514Z,97.32
2023-03-12T05:49:13.449Z,97.32
2023-03-12T05:50:13.431Z,97.75
2023-03-12T05:51:13.430Z,98.07
2023-03-12T05:52:13.426Z,97.81
2023-03-12T05:53:13.421Z,97.75
2023-03-12T05:54:13.403Z,97.60
2023-03-12T05:55:13.388Z,97.60
2023-03-12T05:56:13.388Z,97.71
2023-03-12T05:57:13.368Z,97.92
2023-03-12T05:58:13.388Z,97.60
2023-03-12T05:59:13.335Z,97.71
2023-03-12T06:00:13.327Z,97.55
2023-03-12T06:01:13.312Z,97.98
2023-03-12T06:02:13.364Z,97.45
2023-03-12T06:03:13.473Z,97.77
2023-03-12T06:04:13.276Z,97.66
2023-03-12T06:05:13.292Z,97.77
2023-03-12T06:06:13.274Z,97.55
2023-03-12T06:07:13.247Z,97.62
2023-03-12T06:08:13.228Z,97.62
2023-03-12T06:09:13.222Z,97.72
2023-03-12T06:10:13.361Z,97.62
2023-03-12T06:11:13.209Z,97.72
2023-03-12T06:12:13.200Z,97.47
2023-03-12T06:13:13.187Z,97.72
2023-03-12T06:14:13.197Z,97.25
2023-03-12T06:15:13.175Z,97.58
2023-03-12T06:16:13.190Z,97.78
2023-03-12T06:17:13.136Z,97.64
2023-03-12T06:18:13.129Z,97.74
2023-03-12T06:19:13.224Z,97.74
2023-03-12T06:20:13.098Z,97.91
2023-03-12T06:21:13.120Z,97.49
2023-03-12T06:22:13.072Z,97.38
2023-03-12T06:23:13.095Z,97.49
2023-03-12T06:24:13.069Z,97.44
2023-03-12T06:25:13.049Z,97.91
2023-03-12T06:26:20.192Z,97.81
2023-03-12T06:27:22.170Z,97.55
2023-03-12T06:28:13.022Z,97.72
2023-03-12T06:29:20.648Z,97.72
2023-03-12T06:30:20.639Z,97.61
2023-03-12T06:31:13.020Z,97.72
2023-03-12T06:32:12.969Z,97.83
2023-03-12T06:33:12.970Z,97.57
2023-03-12T06:34:12.944Z,97.46
2023-03-12T06:35:12.939Z,97.46
2023-03-12T06:36:12.962Z,97.46
2023-03-12T06:37:12.924Z,97.63
2023-03-12T06:38:12.955Z,97.63
2023-03-12T06:39:12.906Z,97.85
2023-03-12T06:40:12.889Z,97.74
2023-03-12T06:41:12.906Z,97.91
2023-03-12T06:42:12.887Z,98.01
2023-03-12T06:43:12.880Z,97.59
2023-03-12T06:44:12.836Z,98.33
2023-03-12T06:45:12.874Z,97.75
2023-03-12T06:46:12.885Z,97.54
2023-03-12T06:47:12.823Z,97.22
2023-03-12T06:48:12.815Z,98.14
2023-03-12T06:49:12.806Z,97.61
2023-03-12T06:50:12.770Z,97.77
2023-03-12T06:51:12.763Z,97.88
2023-03-12T06:52:12.745Z,97.88
2023-03-12T06:53:12.745Z,97.67
2023-03-12T06:54:12.753Z,97.63
2023-03-12T06:55:12.722Z,98.16
2023-03-12T06:56:12.703Z,98.16
2023-03-12T06:57:12.702Z,97.41
2023-03-12T06:58:12.689Z,98.05
2023-03-12T06:59:12.710Z,97.79
2023-03-12T07:00:12.656Z,98.22
2023-03-12T07:01:12.674Z,98.11
2023-03-12T07:02:12.707Z,97.96
2023-03-12T07:03:12.639Z,98.07
2023-03-12T07:04:12.644Z,97.85
2023-03-12T07:05:12.693Z,98.07
2023-03-12T07:06:12.631Z,98.17
2023-03-12T07:07:12.597Z,97.91
2023-03-12T07:08:12.596Z,98.02
2023-03-12T07:09:12.571Z,98.08
2023-03-12T07:10:12.548Z,97.87
2023-03-12T07:11:12.568Z,97.98
2023-03-12T07:12:12.533Z,97.93
2023-03-12T07:13:12.551Z,98.21
2023-03-12T07:14:12.524Z,97.99
2023-03-12T07:15:12.506Z,97.85
2023-03-12T07:16:12.600Z,97.69
2023-03-12T07:17:12.527Z,97.80
2023-03-12T07:18:12.478Z,97.13
2023-03-12T07:19:12.469Z,97.08
2023-03-12T07:20:12.448Z,96.97
2023-03-12T07:21:12.462Z,97.56
2023-03-12T07:22:12.422Z,96.57
2023-03-12T07:23:12.428Z,97.09
2023-03-12T07:24:12.433Z,96.53
2023-03-12T07:25:12.410Z,96.37
2023-03-12T07:26:12.396Z,96.17
2023-03-12T07:27:12.373Z,96.17
2023-03-12T07:28:12.399Z,95.28
2023-03-12T07:29:12.383Z,94.82
2023-03-12T07:30:12.341Z,94.50
2023-03-12T07:31:12.370Z,94.50
2023-03-12T07:32:12.315Z,93.72
2023-03-12T07:33:12.562Z,93.09
2023-03-12T07:34:12.566Z,93.51
2023-03-12T07:35:12.297Z,93.19
2023-03-12T07:36:12.356Z,92.42
2023-03-12T07:37:12.275Z,92.52
2023-03-12T07:38:12.279Z,92.42
2023-03-12T07:39:12.236Z,91.74
2023-03-12T07:40:12.240Z,91.22
2023-03-12T07:41:12.415Z,91.49
2023-03-12T07:42:12.206Z,91.39
2023-03-12T07:43:12.195Z,91.60
2023-03-12T07:44:12.215Z,90.82
2023-03-12T07:45:12.259Z,90.40
2023-03-12T07:46:12.169Z,90.30
2023-03-12T07:47:23.279Z,90.05
2023-03-12T07:48:13.192Z,89.62
2023-03-12T07:49:12.148Z,89.62
2023-03-12T07:50:12.164Z,89.42
2023-03-12T07:51:12.125Z,89.42
2023-03-12T07:52:12.126Z,89.37
2023-03-12T07:53:12.521Z,89.27
2023-03-12T07:54:12.077Z,89.44
2023-03-12T07:55:12.208Z,89.54
2023-03-12T07:56:12.225Z,88.92
2023-03-12T07:57:12.185Z,87.87
2023-03-12T07:58:12.097Z,87.87
2023-03-12T07:59:12.125Z,87.72
2023-03-12T08:00:12.081Z,87.30
2023-03-12T08:01:12.037Z,87.41
2023-03-12T08:02:12.115Z,87.16
2023-03-12T08:03:12.188Z,87.20
2023-03-12T08:04:12.074Z,87.16
2023-03-12T08:05:12.040Z,87.37
2023-03-12T08:06:11.993Z,86.74
2023-03-12T08:07:12.145Z,86.00
2023-03-12T08:08:11.946Z,86.00
2023-03-12T08:09:11.930Z,85.90
2023-03-12T08:10:11.906Z,84.96
2023-03-12T08:11:11.896Z,85.27
2023-03-12T08:12:11.904Z,84.64
2023-03-12T08:13:11.875Z,85.27
2023-03-12T08:14:11.896Z,85.80
2023-03-12T08:15:11.835Z,85.75
2023-03-12T08:16:11.941Z,85.86
2023-03-12T08:17:11.838Z,86.07
2023-03-12T08:18:11.788Z,85.75
2023-03-12T08:19:11.791Z,84.92
2023-03-12T08:20:11.772Z,84.81
2023-03-12T08:21:11.779Z,84.88
2023-03-12T08:22:11.767Z,84.99
2023-03-12T08:23:11.749Z,84.88
2023-03-12T08:24:11.720Z,84.36
2023-03-12T08:25:11.735Z,83.52
2023-03-12T08:26:11.696Z,83.21
2023-03-12T08:27:11.714Z,83.42
2023-03-12T08:28:11.679Z,84.05
2023-03-12T08:29:11.684Z,84.00
2023-03-12T08:30:11.677Z,83.59
2023-03-12T08:31:11.728Z,84.00
2023-03-12T08:32:11.708Z,84.22
2023-03-12T08:33:11.733Z,84.22
2023-03-12T08:34:11.608Z,83.48
2023-03-12T08:35:11.622Z,84.22
2023-03-12T08:36:11.614Z,83.90
2023-03-12T08:37:11.598Z,83.48
2023-03-12T08:38:11.575Z,83.06
2023-03-12T08:39:11.558Z,81.92
2023-03-12T08:40:11.557Z,82.33
2023-03-12T08:41:11.565Z,82.23
2023-03-12T08:42:11.546Z,82.43
2023-03-12T08:43:11.554Z,83.38
2023-03-12T08:44:11.523Z,82.65
2023-03-12T08:45:11.492Z,82.33
2023-03-12T08:46:12.490Z,82.40
2023-03-12T08:47:11.513Z,81.77
2023-03-12T08:48:11.455Z,81.77
2023-03-12T08:49:11.452Z,81.42
2023-03-12T08:50:11.436Z,81.21
2023-03-12T08:51:11.443Z,81.42
2023-03-12T08:52:11.414Z,81.28
2023-03-12T08:53:11.453Z,81.38
2023-03-12T08:54:11.387Z,80.72
2023-03-12T08:55:11.385Z,80.82
2023-03-12T08:56:11.362Z,80.68
2023-03-12T08:57:11.366Z,79.68
2023-03-12T08:58:11.366Z,80.16
2023-03-12T08:59:11.350Z,81.27
2023-03-12T09:00:11.368Z,80.65
2023-03-12T09:01:11.345Z,80.02
2023-03-12T09:06:35.496Z,79.60
2023-03-12T09:07:36.198Z,80.47
2023-03-12T09:08:35.656Z,80.23
2023-03-12T09:09:35.431Z,80.13
2023-03-12T09:10:35.435Z,80.54
2023-03-12T09:11:35.380Z,80.33
2023-03-12T09:12:35.401Z,80.71
2023-03-12T09:13:54.598Z,80.61
2023-03-12T09:15:02.389Z,80.61
2023-03-12T09:15:36.333Z,80.68
2023-03-12T09:16:35.364Z,80.78
2023-03-12T09:17:35.350Z,81.51
2023-03-12T09:18:35.342Z,81.47
2023-03-12T09:19:35.343Z,81.05
2023-03-12T09:20:35.282Z,80.22
2023-03-12T09:21:35.259Z,79.28
2023-03-12T09:22:35.252Z,79.70
2023-03-12T09:23:35.241Z,79.87
2023-03-12T09:24:35.334Z,80.29
2023-03-12T09:25:35.214Z,80.05
2023-03-12T09:26:35.217Z,80.40
2023-03-12T09:27:35.189Z,79.73
2023-03-12T09:28:35.209Z,80.36
2023-03-12T09:29:36.736Z,81.19
2023-03-12T09:30:35.223Z,80.67
2023-03-12T09:31:35.144Z,80.88
2023-03-12T09:32:35.162Z,81.19
2023-03-12T09:33:35.147Z,79.77
2023-03-12T09:34:35.117Z,80.46
2023-03-12T09:35:35.132Z,79.83
2023-03-12T09:36:35.107Z,79.73
2023-03-12T09:37:35.075Z,80.19
2023-03-12T09:38:35.092Z,79.94
2023-03-12T09:39:35.056Z,78.69
2023-03-12T09:40:35.090Z,79.11
2023-03-12T09:41:35.045Z,79.32
2023-03-12T09:42:35.037Z,79.00
2023-03-12T09:43:35.014Z,79.11
2023-03-12T09:44:35.039Z,79.28
2023-03-12T09:45:34.984Z,78.97
2023-03-12T09:46:34.981Z,78.86
2023-03-12T09:47:34.998Z,78.86
2023-03-12T09:48:34.966Z,78.76
2023-03-12T09:49:34.939Z,79.11
2023-03-12T09:50:34.932Z,78.97
2023-03-12T09:51:34.914Z,78.86
2023-03-12T09:52:34.929Z,79.07
2023-03-12T09:53:34.907Z,78.76
2023-03-12T09:54:34.895Z,78.83
2023-03-12T09:55:34.873Z,79.24
2023-03-12T09:56:34.884Z,78.72
2023-03-12T09:57:34.869Z,78.79
2023-03-12T09:58:34.844Z,79.41
2023-03-12T09:59:34.826Z,79.06
2023-03-12T10:00:34.828Z,78.55
2023-03-12T10:01:34.818Z,78.51
2023-03-12T10:02:34.818Z,77.89
2023-03-12T10:03:34.896Z,76.85
2023-03-12T10:04:45.450Z,77.37
2023-03-12T10:05:35.757Z,77.47
2023-03-12T10:06:34.765Z,77.54
2023-03-12T10:07:34.763Z,77.02
2023-03-12T10:08:34.734Z,76.92
2023-03-12T10:09:34.720Z,76.99
2023-03-12T10:10:34.745Z,75.33
2023-03-12T10:11:34.690Z,75.12
2023-03-12T10:12:34.703Z,73.67
2023-03-12T10:13:34.716Z,73.98
2023-03-12T10:14:34.684Z,73.77
2023-03-12T10:15:34.671Z,74.81
2023-03-12T10:16:34.640Z,74.50
2023-03-12T10:17:34.645Z,74.19
2023-03-12T10:18:34.792Z,74.84
2023-03-12T10:19:34.605Z,74.63
2023-03-12T10:20:34.597Z,74.32
2023-03-12T10:21:34.599Z,74.11
2023-03-12T10:22:34.585Z,74.57
2023-03-12T10:23:34.581Z,75.71
2023-03-12T10:24:34.589Z,75.46
2023-03-12T10:25:34.551Z,75.67
2023-03-12T10:26:34.531Z,74.53
2023-03-12T10:27:34.513Z,74.53
2023-03-12T10:28:34.531Z,73.91
2023-03-12T10:29:34.526Z,74.08
2023-03-12T10:30:34.493Z,74.71
2023-03-12T10:31:34.468Z,74.19
2023-03-12T10:32:34.530Z,72.42
2023-03-12T10:33:34.457Z,73.36
2023-03-12T10:34:34.481Z,73.63
2023-03-12T10:35:34.431Z,73.11
2023-03-12T10:36:34.424Z,73.22
2023-03-12T10:37:34.421Z,73.84
2023-03-12T10:38:34.389Z,72.80
2023-03-12T10:39:34.392Z,72.36
2023-03-12T10:40:34.431Z,72.25
2023-03-12T10:41:35.098Z,72.15
2023-03-12T10:42:34.355Z,72.11
2023-03-12T10:43:34.347Z,72.22
2023-03-12T10:44:34.360Z,70.87
2023-03-12T10:45:34.324Z,70.32
2023-03-12T10:46:34.717Z,71.56
2023-03-12T10:47:34.292Z,71.73
2023-03-12T10:48:34.321Z,72.56
2023-03-12T10:49:34.310Z,70.26
2023-03-12T10:50:34.281Z,71.39
2023-03-12T10:51:34.235Z,70.29
2023-03-12T10:52:34.229Z,69.04
2023-03-12T10:53:34.238Z,69.04
2023-03-12T10:54:34.237Z,70.18
2023-03-12T10:55:34.192Z,70.47
2023-03-12T10:56:34.203Z,70.15
2023-03-12T10:57:34.178Z,69.12
2023-03-12T10:58:34.180Z,68.12
2023-03-12T10:59:34.142Z,67.49
2023-03-12T11:00:34.178Z,68.32
2023-03-12T11:01:34.142Z,69.15
2023-03-12T11:02:34.130Z,70.18
2023-03-12T11:03:34.094Z,68.98
2023-03-12T11:04:34.111Z,68.87
2023-03-12T11:05:34.180Z,68.77
2023-03-12T11:06:34.102Z,68.94
2023-03-12T11:07:34.051Z,68.43
2023-03-12T11:08:34.046Z,68.74
2023-03-12T11:09:34.045Z,69.04
2023-03-12T11:10:34.042Z,70.15
2023-03-12T11:11:34.053Z,70.05
2023-03-12T11:12:34.007Z,69.81
2023-03-12T11:13:33.986Z,68.57
2023-03-12T11:14:33.977Z,67.85
2023-03-12T11:15:33.972Z,68.05
2023-03-12T11:16:34.082Z,67.95
2023-03-12T11:17:33.966Z,68.29
2023-03-12T11:18:33.946Z,68.08
2023-03-12T11:19:33.951Z,66.94
2023-03-12T11:20:33.939Z,67.95
2023-03-12T11:21:33.892Z,68.49
2023-03-12T11:22:33.884Z,67.33
2023-03-12T11:23:33.887Z,67.77
2023-03-12T11:24:33.894Z,67.15
2023-03-12T11:25:33.845Z,67.46
2023-03-12T11:26:33.836Z,66.94
2023-03-12T11:27:33.873Z,66.84
2023-03-12T11:28:33.850Z,67.77
2023-03-12T11:29:33.859Z,67.57
2023-03-12T11:30:33.817Z,66.94
2023-03-12T11:31:33.841Z,66.56
2023-03-12T11:32:33.800Z,67.36
2023-03-12T11:33:33.751Z,67.15
2023-03-12T11:34:33.749Z,66.15
2023-03-12T11:35:33.757Z,66.66
2023-03-12T11:36:33.753Z,65.94
2023-03-12T11:37:33.735Z,66.25
2023-03-12T11:38:33.705Z,66.77
2023-03-12T11:39:33.690Z,66.15
2023-03-12T11:40:33.716Z,67.08
2023-03-12T11:41:33.665Z,65.84
2023-03-12T11:42:33.668Z,66.22
2023-03-12T11:43:43.210Z,66.22
2023-03-12T11:44:34.651Z,65.29
2023-03-12T11:45:33.629Z,66.02
2023-03-12T11:46:33.683Z,65.84
2023-03-12T11:47:33.678Z,65.84
2023-03-12T11:48:33.680Z,65.84
2023-03-12T11:49:33.618Z,66.80
2023-03-12T11:50:33.567Z,66.69
2023-03-12T11:51:33.552Z,67.00
2023-03-12T11:52:33.575Z,67.94
2023-03-12T11:53:33.539Z,68.59
2023-03-12T11:54:33.518Z,67.86
2023-03-12T11:55:33.577Z,68.18
2023-03-12T11:56:33.500Z,67.35
2023-03-12T11:57:33.479Z,68.49
2023-03-12T11:58:33.488Z,68.18
2023-03-12T11:59:33.463Z,68.62
2023-03-12T12:00:33.468Z,69.24
2023-03-12T12:01:33.436Z,68.90
2023-03-12T12:02:33.425Z,67.45
2023-03-12T12:03:33.487Z,66.62
2023-03-12T12:04:33.421Z,65.80
2023-03-12T12:05:33.385Z,64.83
2023-03-12T12:06:33.379Z,66.38
2023-03-12T12:07:33.363Z,66.49
2023-03-12T12:08:33.376Z,66.59
2023-03-12T12:09:33.344Z,67.00
2023-03-12T12:10:33.358Z,67.83
2023-03-12T12:11:33.315Z,67.32
2023-03-12T12:12:33.311Z,67.63
2023-03-12T12:13:33.313Z,68.04
2023-03-12T12:14:33.283Z,68.46
2023-03-12T12:15:33.299Z,66.69
2023-03-12T12:16:33.369Z,66.59
2023-03-12T12:17:33.308Z,65.14
2023-03-12T12:18:33.288Z,65.45
2023-03-12T12:19:33.264Z,66.49
2023-03-12T12:20:33.294Z,66.69
2023-03-12T12:21:33.205Z,67.83
2023-03-12T12:22:33.433Z,67.52
2023-03-12T12:23:33.195Z,66.90
2023-03-12T12:24:33.251Z,66.08
2023-03-12T12:25:33.156Z,67.73
2023-03-12T12:26:33.170Z,67.21
2023-03-12T12:27:33.129Z,68.22
2023-03-12T12:28:33.126Z,68.53
2023-03-12T12:29:35.603Z,67.70
2023-03-12T12:30:33.200Z,66.32
2023-03-12T12:31:33.141Z,66.71
2023-03-12T12:32:33.116Z,66.19
2023-03-12T12:33:33.056Z,66.39
2023-03-12T12:34:33.076Z,65.91
2023-03-12T12:35:33.174Z,67.98
2023-03-12T12:36:33.052Z,67.25
2023-03-12T12:37:33.040Z,67.36
2023-03-12T12:38:33.028Z,68.19
2023-03-12T12:39:33.002Z,67.05
2023-03-12T12:40:33.222Z,66.02
2023-03-12T12:41:32.967Z,66.53
2023-03-12T12:42:32.964Z,66.94
2023-03-12T12:43:32.971Z,67.88
2023-03-12T12:44:32.961Z,67.88
2023-03-12T12:45:32.919Z,67.64
2023-03-12T12:46:32.937Z,66.60
2023-03-12T12:47:32.902Z,65.88
2023-03-12T12:48:32.912Z,68.23
2023-03-12T12:49:32.876Z,67.22
2023-03-12T12:50:32.917Z,68.15
2023-03-12T12:51:32.890Z,67.74
2023-03-12T12:52:32.903Z,67.22
2023-03-12T12:53:32.906Z,68.15
2023-03-12T12:54:32.852Z,68.49
2023-03-12T12:55:32.804Z,67.77
2023-03-12T12:56:32.813Z,68.19